This is the latest recevied weather packets stored in our database for station/object KC0FGX-1. If no packets are shown the sender has not sent any weather packets the latest 1 day(s).
| Time | Temp. | Humidity | Pressure | Rain* | Wind** | Luminosity | Snow |
|---|---|---|---|---|---|---|---|
| 1778021189 | 11.67° C | 50% | 1009.5 hPa | 0 mm | 0.45 m/s, 332° | - | - |
| 1778020189 | 11.67° C | 52% | 1009.4 hPa | 0 mm | 1.34 m/s, 321° | - | - |
| 1778019189 | 12.22° C | 50% | 1009.2 hPa | 0 mm | 0.45 m/s, 330° | - | - |
| 1778018189 | 12.22° C | 55% | 1009.3 hPa | 0 mm | 0.45 m/s, 320° | - | - |
| 1778017190 | 12.22° C | 55% | 1009.3 hPa | 0 mm | 0.89 m/s, 304° | - | - |
| 1778016189 | 12.22° C | 52% | 1009.4 hPa | 0 mm | 1.79 m/s, 314° | - | - |
| 1778015189 | 12.22° C | 53% | 1009.6 hPa | 0 mm | 1.79 m/s, 310° | - | - |
| 1778014189 | 12.22° C | 52% | 1009.8 hPa | 0 mm | 1.79 m/s, 314° | - | - |
| 1778013189 | 12.22° C | 52% | 1009.8 hPa | 0 mm | 1.79 m/s, 306° | - | - |
| 1778012189 | 12.22° C | 48% | 1009.8 hPa | 0 mm | 1.79 m/s, 309° | - | - |
| 1778011189 | 12.78° C | 48% | 1009.9 hPa | 0 mm | 1.34 m/s, 310° | - | - |
| 1778010189 | 13.33° C | 47% | 1009.9 hPa | 0 mm | 0.89 m/s, 29° | - | - |
| 1778007189 | 12.22° C | 52% | 1010.4 hPa | 0 mm | 0 m/s | - | - |
| 1778006189 | 12.78° C | 51% | 1010.5 hPa | 0 mm | 0.45 m/s, 250° | - | - |
| 1778005189 | 12.22° C | 50% | 1010.7 hPa | 0 mm | 0.45 m/s, 23° | - | - |
| 1778003189 | 11.11° C | 53% | 1011 hPa | 0 mm | 0 m/s | - | - |
| 1778002189 | 11.11° C | 53% | 1011.1 hPa | 0 mm | 0 m/s | - | - |
| 1778001189 | 11.11° C | 55% | 1010.9 hPa | 0 mm | 0.45 m/s, 56° | - | - |
| 1778000188 | 11.11° C | 52% | 1011 hPa | 0 mm | 0.45 m/s, 343° | - | - |
| 1777999189 | 11.11° C | 60% | 1011.1 hPa | 0 mm | 0 m/s | - | - |
| 1777998188 | 10.56° C | 60% | 1011 hPa | 0 mm | 0 m/s | - | - |
| 1777997189 | 10.56° C | 65% | 1010.9 hPa | 0 mm | 0 m/s | - | - |
| 1777996189 | 10° C | 64% | 1010.6 hPa | 0 mm | 0 m/s | - | - |
| 1777995189 | 10° C | 66% | 1010.1 hPa | 0 mm | 0.45 m/s, 75° | - | - |
| 1777994188 | 10° C | 68% | 1009.8 hPa | 0 mm | 0 m/s | - | - |
* Rain latest hour (hover to see other rain measurements)
** Current wind speed in m/s (hover to see current wind gust speed)